Time;durP1;ratioP1;P1;durP2;ratioP2;P2;SDS_P1;SDS_P2;PMS_P1;PMS_P2;Temp;Humidity;BMP_temperature;BMP_pressure;BME280_temperature;BME280_humidity;BME280_pressure;Samples;Min_cycle;Max_cycle;Signal;HPM_P1;HPM_P2
2022/05/01 00:01:29;0.00;0.00;0.62;0.00;0.00;0.62;1.57;1.07;;;26.80;22.60;;;;;;2243644;61;20389;-55
2022/05/01 00:04:13;0.00;0.00;0.62;0.00;0.00;0.62;1.50;0.90;;;26.80;22.00;;;;;;2244505;61;20371;-54
2022/05/01 00:06:58;0.00;0.00;0.62;0.00;0.00;0.62;1.33;1.00;;;26.80;22.00;;;;;;2243872;61;20512;-64
2022/05/01 00:09:42;0.00;0.00;0.62;0.00;0.00;0.62;2.17;1.00;;;26.80;21.90;;;;;;2243950;61;20420;-63
2022/05/01 00:12:29;0.00;0.00;0.62;0.00;0.00;0.62;1.63;1.10;;;26.80;21.90;;;;;;2244205;61;20392;-56
2022/05/01 00:15:15;0.00;0.00;0.62;0.00;0.00;0.62;1.40;0.87;;;26.70;21.90;;;;;;2243655;61;20415;-58
2022/05/01 00:17:59;0.00;0.00;0.62;0.00;0.00;0.62;1.37;0.90;;;26.70;21.60;;;;;;2244152;61;20709;-62
2022/05/01 00:20:44;0.00;0.00;0.62;0.00;0.00;0.62;3.13;1.30;;;26.70;21.90;;;;;;2243506;61;20468;-54
2022/05/01 00:23:28;0.00;0.00;0.62;0.00;0.00;0.62;1.53;1.27;;;26.70;22.00;;;;;;2244022;61;20368;-59
2022/05/01 00:26:13;0.00;0.00;0.62;0.00;0.00;0.62;3.83;1.30;;;26.70;22.10;;;;;;2244259;61;20360;-54
2022/05/01 00:29:00;0.00;0.00;0.62;0.00;0.00;0.62;1.73;1.10;;;26.70;22.20;;;;;;2243837;61;20608;-57
2022/05/01 00:31:47;0.00;0.00;0.62;0.00;0.00;0.62;2.57;1.10;;;26.60;22.20;;;;;;2243825;61;20392;-63
2022/05/01 00:37:34;0.00;0.00;0.62;0.00;0.00;0.62;1.97;1.13;;;26.60;22.30;;;;;;2243435;61;20480;-59
2022/05/01 00:40:19;0.00;0.00;0.62;0.00;0.00;0.62;2.50;0.90;;;26.60;22.30;;;;;;2243736;61;20412;-61
2022/05/01 00:43:04;0.00;0.00;0.62;0.00;0.00;0.62;1.70;1.10;;;26.60;22.40;;;;;;2243454;61;20452;-58
2022/05/01 00:45:49;0.00;0.00;0.62;0.00;0.00;0.62;1.97;0.90;;;26.60;22.40;;;;;;2243992;61;20786;-62
2022/05/01 00:48:35;0.00;0.00;0.62;0.00;0.00;0.62;2.60;1.20;;;26.60;22.50;;;;;;2244382;61;20369;-61
2022/05/01 00:51:21;0.00;0.00;0.62;0.00;0.00;0.62;1.50;0.90;;;26.60;22.50;;;;;;2242635;61;20874;-63
2022/05/01 00:54:07;0.00;0.00;0.62;0.00;0.00;0.62;2.17;1.00;;;26.60;22.50;;;;;;2243911;61;20886;-58
2022/05/01 00:56:55;0.00;0.00;0.62;0.00;0.00;0.62;1.60;1.00;;;26.60;22.50;;;;;;2244042;61;20395;-62
2022/05/01 00:59:39;0.00;0.00;0.62;0.00;0.00;0.62;1.40;0.90;;;26.60;22.50;;;;;;2243216;61;20380;-56
2022/05/01 01:02:24;0.00;0.00;0.62;0.00;0.00;0.62;1.60;0.90;;;26.60;22.60;;;;;;2243667;61;20481;-58
2022/05/01 01:05:12;0.00;0.00;0.62;0.00;0.00;0.62;2.70;1.00;;;26.60;22.60;;;;;;2244023;61;20372;-62
2022/05/01 01:08:00;0.00;0.00;0.62;0.00;0.00;0.62;2.63;1.10;;;26.60;22.70;;;;;;2245030;61;20368;-65
2022/05/01 01:10:45;0.00;0.00;0.62;0.00;0.00;0.62;1.63;1.10;;;26.60;22.70;;;;;;2244170;61;20949;-65
2022/05/01 01:13:30;0.00;0.00;0.62;0.00;0.00;0.62;1.90;1.30;;;26.60;22.60;;;;;;2244678;61;20400;-58
2022/05/01 01:16:14;0.00;0.00;0.62;0.00;0.00;0.62;1.40;1.00;;;26.60;22.60;;;;;;2249692;61;20431;-58
2022/05/01 01:18:59;0.00;0.00;0.62;0.00;0.00;0.62;2.10;1.40;;;26.60;22.50;;;;;;2245111;61;20368;-57
2022/05/01 01:21:51;0.00;0.00;0.62;0.00;0.00;0.62;1.70;1.10;;;26.60;22.50;;;;;;2243738;61;20424;-59
2022/05/01 01:24:40;0.00;0.00;0.62;0.00;0.00;0.62;1.90;1.13;;;26.60;22.40;;;;;;2244888;61;20520;-54
2022/05/01 01:27:25;0.00;0.00;0.62;0.00;0.00;0.62;1.40;1.10;;;26.60;22.30;;;;;;2244517;61;20420;-59
2022/05/01 01:33:15;0.00;0.00;0.62;0.00;0.00;0.62;1.60;1.20;;;26.50;22.20;;;;;;2244676;61;20427;-61
2022/05/01 01:36:03;0.00;0.00;0.62;0.00;0.00;0.62;2.13;1.50;;;26.50;22.10;;;;;;2243356;61;20435;-61
2022/05/01 01:38:50;0.00;0.00;0.62;0.00;0.00;0.62;2.23;1.40;;;26.50;22.10;;;;;;2244861;61;20400;-60
2022/05/01 01:41:39;0.00;0.00;0.62;0.00;0.00;0.62;1.87;1.40;;;26.50;22.00;;;;;;2244604;61;20393;-58
2022/05/01 01:44:29;0.00;0.00;0.62;0.00;0.00;0.62;2.47;1.30;;;26.50;22.00;;;;;;2244397;61;20412;-58
2022/05/01 01:47:14;0.00;0.00;0.62;0.00;0.00;0.62;2.03;1.20;;;26.50;22.00;;;;;;2244523;61;20365;-59
2022/05/01 01:49:59;0.00;0.00;0.62;0.00;0.00;0.62;1.83;1.47;;;26.50;21.90;;;;;;2243627;61;20368;-58
2022/05/01 01:52:47;0.00;0.00;0.62;0.00;0.00;0.62;2.43;1.60;;;26.50;21.90;;;;;;2244318;61;20464;-57
2022/05/01 01:55:35;0.00;0.00;0.62;0.00;0.00;0.62;2.03;1.70;;;26.40;21.90;;;;;;2244856;61;20432;-58
2022/05/01 01:58:20;0.00;0.00;0.62;0.00;0.00;0.62;1.73;1.23;;;26.40;21.90;;;;;;2243817;61;20784;-61
2022/05/01 02:01:06;0.00;0.00;0.62;0.00;0.00;0.62;4.30;1.60;;;26.40;21.80;;;;;;2244610;61;20372;-60
2022/05/01 02:03:51;0.00;0.00;0.62;0.00;0.00;0.62;2.30;1.33;;;26.40;21.80;;;;;;2244735;61;20776;-55
2022/05/01 02:06:36;0.00;0.00;0.62;0.00;0.00;0.62;3.40;1.90;;;26.40;21.80;;;;;;2244337;61;20361;-55
2022/05/01 02:09:20;0.00;0.00;0.62;0.00;0.00;0.62;1.53;1.40;;;26.40;21.80;;;;;;2244472;61;20432;-58
2022/05/01 02:12:08;0.00;0.00;0.62;0.00;0.00;0.62;1.60;1.13;;;26.30;21.70;;;;;;2243741;61;20801;-56
2022/05/01 02:14:52;0.00;0.00;0.62;0.00;0.00;0.62;2.60;1.40;;;26.30;21.70;;;;;;2244009;61;20790;-54
2022/05/01 02:17:40;0.00;0.00;0.62;0.00;0.00;0.62;2.50;1.70;;;26.30;21.70;;;;;;2244169;61;20452;-55
2022/05/01 02:20:27;0.00;0.00;0.62;0.00;0.00;0.62;1.73;1.60;;;26.30;21.70;;;;;;2243637;61;20517;-60
2022/05/01 02:23:11;0.00;0.00;0.62;0.00;0.00;0.62;1.90;1.43;;;26.30;21.70;;;;;;2244306;61;21062;-60
2022/05/01 02:25:56;0.00;0.00;0.62;0.00;0.00;0.62;1.70;1.40;;;26.30;21.70;;;;;;2244809;61;20361;-58
2022/05/01 02:28:42;0.00;0.00;0.62;0.00;0.00;0.62;1.73;1.40;;;26.30;21.70;;;;;;2244391;61;20453;-59
2022/05/01 02:31:26;0.00;0.00;0.62;0.00;0.00;0.62;2.30;1.87;;;26.30;21.70;;;;;;2243885;61;20428;-61
2022/05/01 02:34:12;0.00;0.00;0.62;0.00;0.00;0.62;2.07;1.30;;;26.20;21.60;;;;;;2244052;61;20416;-56
2022/05/01 02:36:57;0.00;0.00;0.62;0.00;0.00;0.62;2.27;1.87;;;26.20;21.70;;;;;;2243957;61;20394;-62
2022/05/01 02:39:41;0.00;0.00;0.62;0.00;0.00;0.62;2.33;2.00;;;26.20;21.70;;;;;;2244775;61;20877;-59
2022/05/01 02:42:26;0.00;0.00;0.62;0.00;0.00;0.62;2.10;1.90;;;26.20;21.60;;;;;;2243669;61;20380;-62
2022/05/01 02:45:13;0.00;0.00;0.62;0.00;0.00;0.62;2.73;1.93;;;26.20;21.60;;;;;;2244700;61;20369;-61
2022/05/01 02:47:57;0.00;0.00;0.62;0.00;0.00;0.62;2.10;1.70;;;26.20;21.70;;;;;;2244760;61;20412;-61
2022/05/01 02:50:42;0.00;0.00;0.62;0.00;0.00;0.62;2.20;1.90;;;26.10;21.60;;;;;;2243505;61;20685;-56
2022/05/01 02:53:26;0.00;0.00;0.62;0.00;0.00;0.62;3.10;1.97;;;26.20;21.70;;;;;;2244549;61;20520;-60
2022/05/01 02:56:11;0.00;0.00;0.62;0.00;0.00;0.62;1.73;1.40;;;26.10;21.60;;;;;;2244118;61;20864;-61
2022/05/01 02:58:55;0.00;0.00;0.62;0.00;0.00;0.62;2.20;2.00;;;26.10;21.60;;;;;;2244454;61;20766;-57
2022/05/01 03:01:41;0.00;0.00;0.62;0.00;0.00;0.62;2.10;1.60;;;26.10;21.60;;;;;;2244393;61;20880;-61
2022/05/01 03:04:26;0.00;0.00;0.62;0.00;0.00;0.62;1.73;1.53;;;26.00;21.60;;;;;;2244293;61;20395;-59
2022/05/01 03:07:12;0.00;0.00;0.62;0.00;0.00;0.62;2.30;1.80;;;26.00;21.50;;;;;;2244274;61;20456;-60
2022/05/01 03:09:56;0.00;0.00;0.62;0.00;0.00;0.62;2.40;1.80;;;26.00;21.50;;;;;;2244755;61;20886;-59
2022/05/01 03:12:41;0.00;0.00;0.62;0.00;0.00;0.62;2.50;2.00;;;26.00;21.60;;;;;;2243572;61;20424;-54
2022/05/01 03:15:26;0.00;0.00;0.62;0.00;0.00;0.62;2.07;1.47;;;26.00;21.60;;;;;;2244548;61;20352;-61
2022/05/01 03:24:19;0.00;0.00;0.62;0.00;0.00;0.62;1.93;1.70;;;25.90;21.50;;;;;;2244763;61;20364;-60
2022/05/01 03:27:04;0.00;0.00;0.62;0.00;0.00;0.62;3.17;2.10;;;25.90;21.60;;;;;;2243858;61;20408;-53
2022/05/01 03:30:15;0.00;0.00;0.62;0.00;0.00;0.62;2.10;1.63;;;25.80;21.60;;;;;;2244098;61;20776;-58
2022/05/01 03:32:54;0.00;0.00;0.62;0.00;0.00;0.62;2.63;1.70;;;25.80;21.60;;;;;;2244143;61;20469;-61
2022/05/01 03:35:40;0.00;0.00;0.62;0.00;0.00;0.62;2.37;1.87;;;25.80;21.60;;;;;;2244118;61;20373;-59
2022/05/01 03:38:24;0.00;0.00;0.62;0.00;0.00;0.62;2.30;1.80;;;25.80;21.60;;;;;;2244456;61;20424;-55
2022/05/01 03:41:13;0.00;0.00;0.62;0.00;0.00;0.62;3.53;1.50;;;25.80;21.60;;;;;;2243445;61;20486;-58
2022/05/01 03:43:58;0.00;0.00;0.62;0.00;0.00;0.62;2.40;1.77;;;25.80;21.60;;;;;;2244049;61;20481;-60
2022/05/01 03:46:43;0.00;0.00;0.62;0.00;0.00;0.62;2.20;1.70;;;25.80;21.60;;;;;;2244769;61;20772;-57
2022/05/01 03:49:28;0.00;0.00;0.62;0.00;0.00;0.62;3.10;1.90;;;25.80;21.70;;;;;;2243430;61;20436;-57
2022/05/01 03:52:14;0.00;0.00;0.62;0.00;0.00;0.62;2.00;1.60;;;25.70;21.60;;;;;;2243936;61;20548;-57
2022/05/01 03:54:59;0.00;0.00;0.62;0.00;0.00;0.62;2.63;2.13;;;25.70;21.60;;;;;;2244132;61;20416;-62
2022/05/01 03:57:44;0.00;0.00;0.62;0.00;0.00;0.62;1.93;1.70;;;25.70;21.60;;;;;;2243881;61;20396;-58
2022/05/01 04:00:29;0.00;0.00;0.62;0.00;0.00;0.62;1.70;1.33;;;25.70;21.70;;;;;;2243973;61;20923;-59
2022/05/01 04:03:13;0.00;0.00;0.62;0.00;0.00;0.62;2.60;1.70;;;25.70;21.70;;;;;;2243708;61;20415;-62
2022/05/01 04:05:59;0.00;0.00;0.62;0.00;0.00;0.62;2.30;1.60;;;25.70;21.70;;;;;;2244018;61;20373;-58
2022/05/01 04:08:45;0.00;0.00;0.62;0.00;0.00;0.62;2.17;1.70;;;25.60;21.60;;;;;;2244298;61;21001;-59
2022/05/01 04:11:30;0.00;0.00;0.62;0.00;0.00;0.62;1.90;1.40;;;25.60;21.70;;;;;;2243097;61;20524;-57
2022/05/01 04:14:14;0.00;0.00;0.62;0.00;0.00;0.62;1.97;1.60;;;25.60;21.70;;;;;;2244203;61;20368;-63
2022/05/01 04:16:59;0.00;0.00;0.62;0.00;0.00;0.62;2.10;1.47;;;25.60;21.70;;;;;;2243872;61;20392;-57
2022/05/01 04:19:44;0.00;0.00;0.62;0.00;0.00;0.62;2.23;1.70;;;25.50;21.70;;;;;;2243836;61;20365;-60
2022/05/01 04:22:36;0.00;0.00;0.62;0.00;0.00;0.62;2.00;1.77;;;25.50;21.70;;;;;;2243954;61;20468;-57
2022/05/01 04:25:24;0.00;0.00;0.62;0.00;0.00;0.62;1.67;1.53;;;25.60;21.70;;;;;;2243976;61;20998;-58
2022/05/01 04:28:11;0.00;0.00;0.62;0.00;0.00;0.62;2.13;1.67;;;25.50;21.70;;;;;;2243522;61;20369;-61
2022/05/01 04:30:55;0.00;0.00;0.62;0.00;0.00;0.62;1.73;1.40;;;25.50;21.80;;;;;;2244062;61;20825;-60
2022/05/01 04:33:40;0.00;0.00;0.62;0.00;0.00;0.62;2.13;1.93;;;25.50;21.70;;;;;;2243568;61;20901;-55
2022/05/01 04:36:25;0.00;0.00;0.62;0.00;0.00;0.62;1.93;1.57;;;25.50;21.80;;;;;;2244087;61;20424;-60
2022/05/01 04:39:10;0.00;0.00;0.62;0.00;0.00;0.62;2.60;1.67;;;25.50;21.80;;;;;;2243974;61;20368;-62
2022/05/01 04:41:55;0.00;0.00;0.62;0.00;0.00;0.62;2.43;1.40;;;25.40;21.70;;;;;;2244008;61;20384;-62
2022/05/01 04:44:40;0.00;0.00;0.62;0.00;0.00;0.62;3.47;1.80;;;25.50;21.80;;;;;;2244770;61;20396;-59
2022/05/01 04:47:24;0.00;0.00;0.62;0.00;0.00;0.62;2.27;1.40;;;25.40;21.80;;;;;;2244761;61;20436;-58
2022/05/01 04:50:11;0.00;0.00;0.62;0.00;0.00;0.62;1.87;1.47;;;25.40;21.80;;;;;;2244813;61;20520;-55
2022/05/01 04:52:57;0.00;0.00;0.62;0.00;0.00;0.62;1.97;1.40;;;25.40;21.90;;;;;;2245132;61;20855;-57
2022/05/01 04:55:46;0.00;0.00;0.62;0.00;0.00;0.62;2.77;1.97;;;25.40;21.90;;;;;;2244414;61;20388;-55
2022/05/01 04:58:32;0.00;0.00;0.62;0.00;0.00;0.62;2.10;1.70;;;25.40;21.90;;;;;;2244667;61;20533;-60
2022/05/01 05:01:17;0.00;0.00;0.62;0.00;0.00;0.62;5.23;1.97;;;25.30;21.90;;;;;;2244793;61;20889;-58
2022/05/01 05:04:03;0.00;0.00;0.62;0.00;0.00;0.62;1.87;1.47;;;25.30;21.90;;;;;;2244325;61;20460;-60
2022/05/01 05:06:52;0.00;0.00;0.62;0.00;0.00;0.62;3.20;1.93;;;25.40;21.90;;;;;;2244938;61;20360;-59
2022/05/01 05:09:55;0.00;0.00;0.62;0.00;0.00;0.62;2.80;1.83;;;25.30;21.90;;;;;;2244117;61;20411;-59
2022/05/01 05:12:42;0.00;0.00;0.62;0.00;0.00;0.62;2.83;1.80;;;25.30;22.00;;;;;;2244292;61;20391;-59
2022/05/01 05:15:29;0.00;0.00;0.62;0.00;0.00;0.62;2.23;1.77;;;25.30;22.00;;;;;;2244832;61;20783;-61
2022/05/01 05:18:13;0.00;0.00;0.62;0.00;0.00;0.62;3.60;2.33;;;25.20;21.90;;;;;;2243933;61;20369;-60
2022/05/01 05:20:58;0.00;0.00;0.62;0.00;0.00;0.62;2.10;1.90;;;25.30;22.00;;;;;;2244405;61;20456;-57
2022/05/01 05:23:43;0.00;0.00;0.62;0.00;0.00;0.62;2.47;1.90;;;25.20;22.00;;;;;;2245442;61;20365;-55
2022/05/01 05:26:27;0.00;0.00;0.62;0.00;0.00;0.62;2.90;1.70;;;25.20;22.00;;;;;;2244519;61;20365;-60
2022/05/01 05:29:12;0.00;0.00;0.62;0.00;0.00;0.62;2.30;1.43;;;25.20;22.00;;;;;;2244973;61;20448;-56
2022/05/01 05:31:57;0.00;0.00;0.62;0.00;0.00;0.62;3.70;1.93;;;25.20;22.00;;;;;;2243879;61;20787;-56
2022/05/01 05:34:42;0.00;0.00;0.62;0.00;0.00;0.62;2.23;1.57;;;25.20;22.10;;;;;;2244420;61;20404;-63
2022/05/01 05:37:27;0.00;0.00;0.62;0.00;0.00;0.62;2.73;1.80;;;25.20;22.10;;;;;;2244989;61;20396;-57
2022/05/01 05:40:12;0.00;0.00;0.62;0.00;0.00;0.62;3.60;1.80;;;25.20;22.20;;;;;;2244055;61;20383;-56
2022/05/01 05:42:56;0.00;0.00;0.62;0.00;0.00;0.62;4.73;1.90;;;25.20;22.10;;;;;;2249553;61;20412;-58
2022/05/01 05:45:41;0.00;0.00;0.62;0.00;0.00;0.62;2.77;1.80;;;25.20;22.20;;;;;;2245164;61;20427;-54
2022/05/01 05:48:27;0.00;0.00;0.62;0.00;0.00;0.62;2.13;1.67;;;25.20;22.10;;;;;;2243684;61;20452;-58
2022/05/01 05:51:11;0.00;0.00;0.62;0.00;0.00;0.62;2.90;1.97;;;25.20;22.20;;;;;;2244401;61;20891;-59
2022/05/01 05:53:56;0.00;0.00;0.62;0.00;0.00;0.62;2.40;1.57;;;25.20;22.20;;;;;;2244230;61;20494;-59
2022/05/01 05:56:41;0.00;0.00;0.62;0.00;0.00;0.62;3.33;2.03;;;25.10;22.10;;;;;;2244430;61;20385;-57
2022/05/01 05:59:26;0.00;0.00;0.62;0.00;0.00;0.62;3.87;2.53;;;25.10;22.20;;;;;;2244906;61;20412;-56
2022/05/01 06:02:10;0.00;0.00;0.62;0.00;0.00;0.62;2.70;1.77;;;25.10;22.20;;;;;;2243621;61;20773;-63
2022/05/01 06:04:59;0.00;0.00;0.62;0.00;0.00;0.62;4.17;2.33;;;25.10;22.20;;;;;;2244283;61;20373;-57
2022/05/01 06:07:44;0.00;0.00;0.62;0.00;0.00;0.62;2.70;2.20;;;25.10;22.20;;;;;;2244944;61;20373;-58
2022/05/01 06:10:28;0.00;0.00;0.62;0.00;0.00;0.62;2.77;2.27;;;25.10;22.20;;;;;;2243539;61;20376;-63
2022/05/01 06:13:13;0.00;0.00;0.62;0.00;0.00;0.62;3.43;1.80;;;25.10;22.70;;;;;;2244559;61;20396;-64
2022/05/01 06:15:57;0.00;0.00;0.62;0.00;0.00;0.62;3.40;2.03;;;25.10;22.10;;;;;;2244311;61;20524;-68
2022/05/01 06:18:42;0.00;0.00;0.62;0.00;0.00;0.62;2.47;1.93;;;25.00;22.10;;;;;;2252077;58;20380;-55
2022/05/01 06:21:27;0.00;0.00;0.62;0.00;0.00;0.62;4.27;2.30;;;25.00;22.30;;;;;;2248533;61;20403;-56
2022/05/01 06:24:12;0.00;0.00;0.62;0.00;0.00;0.62;2.67;2.03;;;25.00;22.30;;;;;;2248142;61;20371;-65
2022/05/01 06:26:57;0.00;0.00;0.62;0.00;0.00;0.62;3.93;2.20;;;25.00;22.30;;;;;;2248214;61;20790;-67
2022/05/01 06:29:42;0.00;0.00;0.62;0.00;0.00;0.62;2.30;1.87;;;25.00;22.30;;;;;;2244811;58;20368;-59
2022/05/01 06:32:27;0.00;0.00;0.62;0.00;0.00;0.62;2.10;1.80;;;25.00;22.30;;;;;;2243325;61;20392;-61
2022/05/01 06:35:12;0.00;0.00;0.62;0.00;0.00;0.62;3.50;1.80;;;25.00;22.30;;;;;;2244507;61;20375;-69
2022/05/01 06:37:58;0.00;0.00;0.62;0.00;0.00;0.62;2.80;1.80;;;25.00;22.30;;;;;;2243964;61;20485;-65
2022/05/01 06:40:43;0.00;0.00;0.62;0.00;0.00;0.62;2.90;1.90;;;25.00;22.30;;;;;;2244097;61;20384;-57
2022/05/01 06:43:28;0.00;0.00;0.62;0.00;0.00;0.62;2.90;2.60;;;25.00;22.30;;;;;;2248394;61;20400;-61
2022/05/01 06:46:13;0.00;0.00;0.62;0.00;0.00;0.62;2.60;2.40;;;25.00;22.30;;;;;;2248258;61;20892;-55
2022/05/01 06:48:57;0.00;0.00;0.62;0.00;0.00;0.62;3.77;2.20;;;25.00;22.30;;;;;;2250745;61;20890;-66
2022/05/01 06:51:42;0.00;0.00;0.62;0.00;0.00;0.62;3.40;1.63;;;25.00;22.30;;;;;;2248249;61;20388;-60
2022/05/01 06:54:28;0.00;0.00;0.62;0.00;0.00;0.62;6.50;2.23;;;25.00;22.30;;;;;;2247602;61;20434;-54
2022/05/01 06:57:13;0.00;0.00;0.62;0.00;0.00;0.62;2.90;1.90;;;25.00;22.30;;;;;;2248548;61;20959;-61
2022/05/01 06:59:58;0.00;0.00;0.62;0.00;0.00;0.62;2.87;2.00;;;25.00;22.30;;;;;;2247590;61;20448;-65
2022/05/01 07:02:46;0.00;0.00;0.62;0.00;0.00;0.62;3.10;2.07;;;25.00;22.30;;;;;;2247367;61;20806;-66
2022/05/01 07:05:31;0.00;0.00;0.62;0.00;0.00;0.62;3.27;1.80;;;25.00;22.30;;;;;;2248081;61;20415;-66
2022/05/01 07:08:16;0.00;0.00;0.62;0.00;0.00;0.62;2.83;2.20;;;25.00;22.30;;;;;;2247731;61;20376;-51
2022/05/01 07:11:02;0.00;0.00;0.62;0.00;0.00;0.62;3.33;2.20;;;25.00;22.40;;;;;;2247226;61;20904;-58
2022/05/01 07:13:46;0.00;0.00;0.62;0.00;0.00;0.62;3.53;1.80;;;25.00;22.40;;;;;;2248205;61;20387;-54
2022/05/01 07:16:31;0.00;0.00;0.62;0.00;0.00;0.62;3.80;2.53;;;25.00;22.40;;;;;;2247787;61;20395;-57
2022/05/01 07:19:15;0.00;0.00;0.62;0.00;0.00;0.62;2.17;1.87;;;25.00;22.30;;;;;;2248021;61;20364;-58
2022/05/01 07:22:00;0.00;0.00;0.62;0.00;0.00;0.62;3.40;1.90;;;25.00;22.30;;;;;;2247652;61;20491;-52
2022/05/01 07:24:44;0.00;0.00;0.62;0.00;0.00;0.62;2.10;1.70;;;25.00;22.30;;;;;;2248152;61;20459;-56
2022/05/01 07:27:31;0.00;0.00;0.62;0.00;0.00;0.62;2.20;1.50;;;25.00;22.30;;;;;;2248072;61;20864;-56
2022/05/01 07:30:16;0.00;0.00;0.62;0.00;0.00;0.62;2.67;1.47;;;25.00;22.30;;;;;;2247615;61;20380;-55
2022/05/01 07:33:00;0.00;0.00;0.62;0.00;0.00;0.62;2.77;1.77;;;25.00;22.30;;;;;;2248127;61;20475;-62
2022/05/01 07:35:46;0.00;0.00;0.62;0.00;0.00;0.62;1.80;1.40;;;25.00;22.30;;;;;;2248053;61;20422;-56
2022/05/01 07:38:31;0.00;0.00;0.62;0.00;0.00;0.62;2.10;1.50;;;25.00;22.30;;;;;;2247493;61;20375;-52
2022/05/01 07:41:16;0.00;0.00;0.62;0.00;0.00;0.62;3.57;1.67;;;25.00;22.30;;;;;;2244908;61;20400;-55
2022/05/01 07:44:03;0.00;0.00;0.62;0.00;0.00;0.62;4.23;2.30;;;25.00;22.30;;;;;;2243950;61;21019;-55
2022/05/01 07:46:48;0.00;0.00;0.62;0.00;0.00;0.62;2.40;1.70;;;25.00;22.30;;;;;;2243561;61;20373;-54
2022/05/01 07:49:32;0.00;0.00;0.62;0.00;0.00;0.62;2.40;1.73;;;25.00;22.80;;;;;;2243242;61;20407;-54
2022/05/01 07:52:17;0.00;0.00;0.62;0.00;0.00;0.62;2.13;1.60;;;25.00;22.30;;;;;;2242936;61;20537;-54
2022/05/01 07:55:03;0.00;0.00;0.62;0.00;0.00;0.62;2.47;1.50;;;25.10;22.30;;;;;;2243573;61;20436;-54
2022/05/01 07:57:48;0.00;0.00;0.62;0.00;0.00;0.62;2.80;1.83;;;25.10;22.30;;;;;;2243959;61;20412;-53
2022/05/01 08:00:34;0.00;0.00;0.62;0.00;0.00;0.62;2.30;1.37;;;25.10;22.30;;;;;;2242878;61;20423;-55
2022/05/01 08:06:22;0.00;0.00;0.62;0.00;0.00;0.62;2.23;1.57;;;25.10;22.30;;;;;;2244093;61;20360;-53
2022/05/01 08:09:07;0.00;0.00;0.62;0.00;0.00;0.62;2.30;1.20;;;25.10;22.30;;;;;;2243807;61;20392;-55
2022/05/01 08:11:52;0.00;0.00;0.62;0.00;0.00;0.62;1.97;1.43;;;25.10;22.30;;;;;;2243381;61;20417;-54
2022/05/01 08:14:41;0.00;0.00;0.62;0.00;0.00;0.62;1.83;1.30;;;25.10;22.30;;;;;;2243549;61;20369;-57
2022/05/01 08:17:27;0.00;0.00;0.62;0.00;0.00;0.62;2.17;1.60;;;25.10;22.30;;;;;;2243676;61;20806;-57
2022/05/01 08:23:15;0.00;0.00;0.62;0.00;0.00;0.62;1.80;1.50;;;25.10;22.30;;;;;;2243424;61;20472;-57
2022/05/01 08:26:03;0.00;0.00;0.62;0.00;0.00;0.62;2.00;1.27;;;25.10;22.30;;;;;;2243899;61;20368;-55
2022/05/01 08:28:51;0.00;0.00;0.62;0.00;0.00;0.62;2.10;1.40;;;25.10;22.30;;;;;;2243865;61;20364;-58
2022/05/01 08:31:36;0.00;0.00;0.62;0.00;0.00;0.62;1.90;1.30;;;25.20;22.40;;;;;;2243580;61;20679;-54
2022/05/01 08:34:22;0.00;0.00;0.62;0.00;0.00;0.62;4.00;1.80;;;25.20;22.40;;;;;;2243785;61;20806;-57
2022/05/01 08:37:07;0.00;0.00;0.62;0.00;0.00;0.62;2.20;1.40;;;25.20;22.40;;;;;;2243285;61;20400;-54
2022/05/01 08:39:51;0.00;0.00;0.62;0.00;0.00;0.62;1.83;1.53;;;25.20;22.40;;;;;;2243755;61;20373;-52
2022/05/01 08:42:36;0.00;0.00;0.62;0.00;0.00;0.62;2.40;1.60;;;25.20;22.40;;;;;;2243296;61;20400;-56
2022/05/01 08:45:25;0.00;0.00;0.62;0.00;0.00;0.62;1.57;1.10;;;25.20;22.40;;;;;;2243355;61;20443;-57
2022/05/01 08:48:15;0.00;0.00;0.62;0.00;0.00;0.62;2.37;1.10;;;25.20;22.40;;;;;;2243780;61;20356;-57
2022/05/01 08:51:03;0.00;0.00;0.62;0.00;0.00;0.62;1.80;1.13;;;25.20;22.40;;;;;;2243245;61;20565;-58
2022/05/01 08:53:49;0.00;0.00;0.62;0.00;0.00;0.62;1.80;1.20;;;25.20;22.40;;;;;;2243961;61;20451;-57
2022/05/01 08:56:36;0.00;0.00;0.62;0.00;0.00;0.62;1.43;1.10;;;25.20;22.40;;;;;;2243747;61;20443;-57
2022/05/01 08:59:21;0.00;0.00;0.62;0.00;0.00;0.62;2.07;1.40;;;25.20;22.40;;;;;;2243351;61;20375;-56
2022/05/01 09:02:10;0.00;0.00;0.62;0.00;0.00;0.62;1.63;1.20;;;25.20;22.40;;;;;;2243292;61;20605;-55
2022/05/01 09:04:58;0.00;0.00;0.62;0.00;0.00;0.62;1.87;1.20;;;25.30;22.40;;;;;;2243905;61;20428;-57
2022/05/01 09:07:44;0.00;0.00;0.62;0.00;0.00;0.62;1.60;1.30;;;25.20;22.40;;;;;;2243618;61;20361;-51
2022/05/01 09:10:32;0.00;0.00;0.62;0.00;0.00;0.62;2.60;1.20;;;25.30;22.40;;;;;;2243591;61;20424;-50
2022/05/01 09:13:23;0.00;0.00;0.62;0.00;0.00;0.62;1.63;1.10;;;25.30;22.40;;;;;;2243340;61;20427;-59
2022/05/01 09:16:12;0.00;0.00;0.62;0.00;0.00;0.62;1.60;1.13;;;25.30;22.40;;;;;;2243990;61;20766;-57
2022/05/01 09:18:57;0.00;0.00;0.62;0.00;0.00;0.62;2.23;1.40;;;25.30;22.90;;;;;;2243692;61;20372;-57
2022/05/01 09:21:50;0.00;0.00;0.62;0.00;0.00;0.62;1.67;1.27;;;25.30;22.40;;;;;;2243027;61;20573;-57
2022/05/01 09:24:36;0.00;0.00;0.62;0.00;0.00;0.62;2.23;1.50;;;25.30;22.40;;;;;;2243550;61;20369;-53
2022/05/01 09:27:27;0.00;0.00;0.62;0.00;0.00;0.62;2.03;1.23;;;25.30;22.40;;;;;;2244098;61;20427;-54
2022/05/01 09:30:15;0.00;0.00;0.62;0.00;0.00;0.62;1.83;1.20;;;25.30;22.40;;;;;;2243760;61;20457;-60
2022/05/01 09:33:03;0.00;0.00;0.62;0.00;0.00;0.62;1.60;1.30;;;25.40;22.50;;;;;;2244349;61;20385;-58
2022/05/01 09:35:48;0.00;0.00;0.62;0.00;0.00;0.62;1.70;1.20;;;25.40;22.50;;;;;;2244107;61;20412;-56
2022/05/01 09:38:33;0.00;0.00;0.62;0.00;0.00;0.62;1.53;1.10;;;25.40;22.50;;;;;;2244474;61;20401;-57
2022/05/01 09:41:26;0.00;0.00;0.62;0.00;0.00;0.62;2.20;1.20;;;25.40;22.50;;;;;;2243981;61;20709;-55
2022/05/01 09:44:16;0.00;0.00;0.62;0.00;0.00;0.62;2.13;1.23;;;25.40;22.50;;;;;;2243341;61;20831;-55
2022/05/01 09:47:00;0.00;0.00;0.62;0.00;0.00;0.62;1.57;1.20;;;25.40;22.50;;;;;;2243798;61;20380;-55
2022/05/01 09:49:48;0.00;0.00;0.62;0.00;0.00;0.62;1.67;1.23;;;25.40;22.50;;;;;;2244315;61;20513;-54
2022/05/01 09:52:59;0.00;0.00;0.62;0.00;0.00;0.62;1.50;1.10;;;25.40;22.50;;;;;;2243643;61;20933;-51
2022/05/01 09:55:58;0.00;0.00;0.62;0.00;0.00;0.62;2.40;1.40;;;25.40;22.50;;;;;;2244269;61;20376;-56
2022/05/01 09:58:44;0.00;0.00;0.62;0.00;0.00;0.62;1.63;1.10;;;25.50;22.50;;;;;;2243956;61;20433;-57
2022/05/01 10:01:29;0.00;0.00;0.62;0.00;0.00;0.62;1.47;0.93;;;25.50;22.50;;;;;;2243381;61;20473;-58
2022/05/01 10:04:16;0.00;0.00;0.62;0.00;0.00;0.62;1.43;0.90;;;25.50;22.50;;;;;;2244224;61;20464;-57
2022/05/01 10:07:02;0.00;0.00;0.62;0.00;0.00;0.62;1.80;1.10;;;25.50;22.50;;;;;;2243988;61;20368;-54
2022/05/01 10:09:49;0.00;0.00;0.62;0.00;0.00;0.62;1.83;1.37;;;25.50;22.50;;;;;;2244109;61;20365;-54
2022/05/01 10:12:43;0.00;0.00;0.62;0.00;0.00;0.62;1.70;1.57;;;25.50;22.50;;;;;;2243397;61;20570;-60
2022/05/01 10:15:30;0.00;0.00;0.62;0.00;0.00;0.62;1.40;1.10;;;25.50;22.50;;;;;;2244213;61;20892;-52
2022/05/01 10:18:16;0.00;0.00;0.62;0.00;0.00;0.62;1.80;1.43;;;25.50;22.50;;;;;;2243909;61;20528;-54
2022/05/01 10:21:02;0.00;0.00;0.62;0.00;0.00;0.62;2.00;1.30;;;25.60;22.60;;;;;;2243456;61;20389;-53
2022/05/01 10:23:47;0.00;0.00;0.62;0.00;0.00;0.62;1.63;1.23;;;25.60;22.60;;;;;;2243820;61;20915;-56
2022/05/01 10:26:37;0.00;0.00;0.62;0.00;0.00;0.62;1.60;1.20;;;25.60;22.60;;;;;;2243699;61;20372;-58
2022/05/01 10:32:21;0.00;0.00;0.62;0.00;0.00;0.62;1.60;1.20;;;25.70;22.60;;;;;;2243919;61;20407;-55
2022/05/01 10:33:28;0.00;0.00;0.62;0.00;0.00;0.62;1.50;1.00;;;25.70;22.60;;;;;;2243480;61;20879;-57
2022/05/01 10:36:38;0.00;0.00;0.62;0.00;0.00;0.62;1.90;1.40;;;25.70;22.60;;;;;;2243860;61;20442;-58
2022/05/01 10:39:28;0.00;0.00;0.62;0.00;0.00;0.62;2.23;1.57;;;25.70;22.60;;;;;;2243757;61;20524;-54
2022/05/01 10:42:32;0.00;0.00;0.62;0.00;0.00;0.62;1.70;1.17;;;25.70;22.60;;;;;;2243422;61;20385;-56
2022/05/01 10:45:42;0.00;0.00;0.62;0.00;0.00;0.62;1.57;1.17;;;25.70;22.60;;;;;;2243860;61;20368;-53
2022/05/01 10:48:35;0.00;0.00;0.62;0.00;0.00;0.62;1.70;1.03;;;25.70;22.60;;;;;;2244273;61;20361;-60
2022/05/01 10:51:48;0.00;0.00;0.62;0.00;0.00;0.62;1.80;1.30;;;25.80;22.70;;;;;;2243308;61;20392;-64
2022/05/01 10:54:37;0.00;0.00;0.62;0.00;0.00;0.62;1.80;1.30;;;25.80;23.20;;;;;;2238791;61;20445;-56
2022/05/01 10:57:23;0.00;0.00;0.62;0.00;0.00;0.62;1.83;1.30;;;25.80;22.70;;;;;;2238895;61;20469;-59
2022/05/01 11:00:11;0.00;0.00;0.62;0.00;0.00;0.62;1.80;1.23;;;25.80;22.70;;;;;;2244278;61;20369;-55
2022/05/01 11:02:56;0.00;0.00;0.62;0.00;0.00;0.62;2.27;1.30;;;25.80;22.70;;;;;;2244141;61;20388;-53
2022/05/01 11:05:43;0.00;0.00;0.62;0.00;0.00;0.62;2.10;1.50;;;25.80;22.70;;;;;;2243728;61;20449;-55
2022/05/01 11:08:32;0.00;0.00;0.62;0.00;0.00;0.62;2.00;1.50;;;25.80;22.70;;;;;;2244194;61;20368;-55
2022/05/01 11:11:19;0.00;0.00;0.62;0.00;0.00;0.62;1.73;1.07;;;25.90;22.70;;;;;;2243646;61;20904;-55
2022/05/01 11:14:04;0.00;0.00;0.62;0.00;0.00;0.62;1.77;1.10;;;25.90;22.70;;;;;;2243887;61;20920;-56
2022/05/01 11:16:52;0.00;0.00;0.62;0.00;0.00;0.62;1.57;1.00;;;25.90;22.70;;;;;;2244115;61;20388;-54